createdAt,value
2023-08-11T00:00:22.624Z,84.51
2023-08-11T00:02:52.758Z,84.69
2023-08-11T00:05:20.599Z,85.04
2023-08-11T00:07:51.511Z,84.99
2023-08-11T00:10:19.392Z,85.51
2023-08-11T00:12:46.485Z,85.55
2023-08-11T00:15:13.627Z,85.85
2023-08-11T00:17:43.035Z,85.86
2023-08-11T00:20:10.021Z,86.10
2023-08-11T00:22:39.013Z,85.84
2023-08-11T00:25:06.721Z,85.89
2023-08-11T00:27:33.410Z,85.91
2023-08-11T00:30:00.004Z,85.84
2023-08-11T00:32:26.736Z,85.87
2023-08-11T00:34:53.656Z,86.16
2023-08-11T00:37:20.384Z,86.49
2023-08-11T00:39:47.056Z,86.26
2023-08-11T00:42:13.936Z,86.45
2023-08-11T00:44:40.650Z,86.31
2023-08-11T00:47:07.685Z,86.56
2023-08-11T00:49:34.836Z,86.54
2023-08-11T00:52:01.828Z,86.57
2023-08-11T00:54:29.515Z,86.86
2023-08-11T00:56:56.385Z,86.82
2023-08-11T00:59:24.293Z,86.81
2023-08-11T01:01:50.876Z,86.51
2023-08-11T01:04:18.044Z,86.62
2023-08-11T01:06:58.546Z,86.55
2023-08-11T01:09:36.618Z,86.32
2023-08-11T01:12:40.826Z,86.12
2023-08-11T01:15:23.524Z,86.09
2023-08-11T01:17:52.019Z,86.02
2023-08-11T01:20:19.629Z,86.10
2023-08-11T01:22:48.948Z,85.97
2023-08-11T01:25:15.666Z,85.86
2023-08-11T01:27:57.721Z,86.78
2023-08-11T01:30:25.589Z,86.19
2023-08-11T01:32:53.389Z,86.37
2023-08-11T01:35:33.601Z,86.75
2023-08-11T01:38:05.762Z,86.64
2023-08-11T01:40:32.335Z,86.94
2023-08-11T01:43:03.614Z,87.03
2023-08-11T01:45:30.513Z,87.22
2023-08-11T01:47:57.744Z,87.34
2023-08-11T01:50:25.091Z,87.31
2023-08-11T01:52:53.341Z,87.73
2023-08-11T01:55:19.906Z,87.68
2023-08-11T01:57:57.664Z,87.68
2023-08-11T02:00:25.661Z,87.80
2023-08-11T02:02:52.230Z,87.46
2023-08-11T02:05:19.244Z,87.55
2023-08-11T02:07:46.332Z,87.66
2023-08-11T02:10:13.597Z,87.63
2023-08-11T02:12:41.039Z,87.77
2023-08-11T02:15:08.615Z,87.78
2023-08-11T02:17:36.387Z,87.86
2023-08-11T02:20:19.335Z,87.79
2023-08-11T02:22:46.227Z,87.80
2023-08-11T02:25:13.097Z,88.11
2023-08-11T02:27:39.893Z,88.10
2023-08-11T02:30:07.853Z,88.06
2023-08-11T02:32:34.750Z,88.21
2023-08-11T02:35:01.921Z,88.03
2023-08-11T02:37:28.544Z,88.21
2023-08-11T02:39:55.057Z,88.08
2023-08-11T02:42:22.084Z,88.35
2023-08-11T02:44:50.155Z,88.26
2023-08-11T02:47:16.763Z,88.77
2023-08-11T02:49:43.466Z,89.01
2023-08-11T02:52:10.867Z,89.03
2023-08-11T02:54:37.795Z,89.41
2023-08-11T02:57:04.589Z,88.96
2023-08-11T02:59:31.523Z,88.86
2023-08-11T03:01:58.036Z,88.46
2023-08-11T03:04:24.660Z,88.63
2023-08-11T03:06:52.191Z,88.88
2023-08-11T03:09:18.782Z,88.75
2023-08-11T03:11:45.330Z,88.63
2023-08-11T03:14:20.950Z,88.61
2023-08-11T03:16:47.572Z,88.62
2023-08-11T03:19:14.153Z,88.54
2023-08-11T03:21:40.649Z,88.76
2023-08-11T03:24:07.465Z,88.66
2023-08-11T03:26:34.935Z,88.98
2023-08-11T03:29:01.573Z,88.89
2023-08-11T03:31:28.096Z,88.89
2023-08-11T03:33:54.872Z,88.92
2023-08-11T03:36:21.845Z,89.27
2023-08-11T03:38:49.467Z,89.21
2023-08-11T03:41:16.143Z,89.58
2023-08-11T03:43:42.705Z,89.23
2023-08-11T03:46:09.445Z,89.36
2023-08-11T03:48:36.044Z,89.18
2023-08-11T03:51:03.473Z,89.41
2023-08-11T03:53:31.546Z,89.20
2023-08-11T03:55:58.950Z,89.87
2023-08-11T03:58:25.692Z,89.86
2023-08-11T04:00:52.465Z,89.84
2023-08-11T04:03:19.096Z,89.64
2023-08-11T04:05:45.677Z,89.50
2023-08-11T04:08:12.636Z,89.38
2023-08-11T04:10:39.513Z,89.42
2023-08-11T04:13:06.367Z,89.32
2023-08-11T04:15:33.836Z,89.13
2023-08-11T04:18:00.676Z,89.21
2023-08-11T04:20:29.655Z,89.30
2023-08-11T04:22:57.304Z,89.43
2023-08-11T04:25:25.302Z,89.53
2023-08-11T04:27:52.099Z,89.50
2023-08-11T04:30:19.027Z,90.00
2023-08-11T04:32:45.812Z,89.78
2023-08-11T04:35:12.650Z,89.82
2023-08-11T04:37:39.618Z,89.58
2023-08-11T04:40:10.639Z,89.36
2023-08-11T04:42:40.810Z,89.75
2023-08-11T04:45:07.973Z,90.21
2023-08-11T04:47:34.462Z,90.01
2023-08-11T04:50:01.724Z,90.27
2023-08-11T04:52:28.571Z,90.51
2023-08-11T04:54:55.140Z,90.25
2023-08-11T04:57:25.606Z,89.90
2023-08-11T04:59:52.217Z,90.11
2023-08-11T05:02:18.749Z,90.46
2023-08-11T05:04:45.378Z,90.14
2023-08-11T05:07:11.921Z,90.28
2023-08-11T05:09:38.683Z,90.47
2023-08-11T05:12:06.056Z,90.56
2023-08-11T05:14:32.976Z,90.36
2023-08-11T05:17:01.581Z,90.38
2023-08-11T05:19:30.435Z,90.13
2023-08-11T05:23:57.106Z,90.24
2023-08-11T05:26:23.802Z,90.78
2023-08-11T05:28:50.449Z,90.67
2023-08-11T05:31:17.348Z,90.43
2023-08-11T05:33:43.984Z,87.97
2023-08-11T05:36:10.441Z,81.47
2023-08-11T05:38:37.012Z,75.27
2023-08-11T05:41:04.319Z,70.03
2023-08-11T05:43:31.178Z,64.27
2023-08-11T05:45:57.815Z,62.69
2023-08-11T05:48:24.472Z,63.29
2023-08-11T05:50:51.677Z,61.23
2023-08-11T05:53:18.230Z,57.94
2023-08-11T05:55:44.879Z,54.70
2023-08-11T05:58:11.620Z,52.05
2023-08-11T06:00:38.173Z,47.82
2023-08-11T06:03:05.016Z,47.04
2023-08-11T06:05:31.908Z,47.25
2023-08-11T06:08:06.164Z,46.57
2023-08-11T06:10:33.925Z,44.47
2023-08-11T06:13:00.683Z,44.46
2023-08-11T06:15:27.457Z,43.27
2023-08-11T06:17:54.037Z,41.78
2023-08-11T06:20:26.623Z,40.70
2023-08-11T06:23:01.709Z,39.75
2023-08-11T06:25:28.863Z,39.54
2023-08-11T06:27:56.381Z,40.45
2023-08-11T06:30:22.886Z,38.93
2023-08-11T06:32:49.437Z,39.91
2023-08-11T06:35:15.996Z,44.20
2023-08-11T06:37:42.541Z,47.46
2023-08-11T06:40:10.190Z,48.13
2023-08-11T06:42:36.658Z,44.36
2023-08-11T06:45:03.914Z,41.86
2023-08-11T06:47:32.258Z,39.74
2023-08-11T06:49:59.521Z,38.56
2023-08-11T06:52:27.414Z,39.70
2023-08-11T06:54:54.022Z,44.65
2023-08-11T06:57:23.395Z,49.28
2023-08-11T06:59:50.023Z,52.06
2023-08-11T07:02:16.615Z,54.47
2023-08-11T07:04:43.204Z,55.21
2023-08-11T07:07:09.999Z,56.78
2023-08-11T07:09:37.495Z,57.03
2023-08-11T07:12:04.210Z,59.16
2023-08-11T07:14:30.752Z,59.47
2023-08-11T07:16:57.418Z,61.26
2023-08-11T07:19:23.947Z,62.50
2023-08-11T07:21:50.462Z,63.72
2023-08-11T07:24:17.213Z,63.36
2023-08-11T07:26:43.773Z,63.64
2023-08-11T07:29:10.335Z,63.64
2023-08-11T07:31:37.207Z,63.99
2023-08-11T07:34:04.454Z,67.10
2023-08-11T07:36:31.151Z,63.05
2023-08-11T07:39:09.066Z,56.99
2023-08-11T07:41:43.909Z,54.81
2023-08-11T07:44:10.782Z,49.93
2023-08-11T07:46:37.391Z,46.57
2023-08-11T07:49:11.684Z,46.87
2023-08-11T07:54:18.749Z,44.80
2023-08-11T07:56:46.066Z,42.19
2023-08-11T07:59:12.957Z,41.54
2023-08-11T08:01:41.025Z,41.23
2023-08-11T08:04:07.530Z,39.13
2023-08-11T08:06:54.372Z,39.65
2023-08-11T08:09:20.886Z,41.06
2023-08-11T08:11:48.863Z,37.28
2023-08-11T08:14:15.953Z,40.60
2023-08-11T08:16:43.421Z,38.61
2023-08-11T08:19:12.112Z,38.45
2023-08-11T08:21:39.852Z,40.14
2023-08-11T08:24:06.808Z,39.84
2023-08-11T08:26:33.710Z,40.03
2023-08-11T08:29:05.089Z,37.85
2023-08-11T08:31:31.760Z,40.25
2023-08-11T08:33:58.656Z,39.41
2023-08-11T08:36:25.216Z,39.18
2023-08-11T08:38:51.774Z,40.29
2023-08-11T08:41:28.467Z,39.24
2023-08-11T08:44:01.401Z,43.15
2023-08-11T08:46:29.919Z,36.91
2023-08-11T08:49:06.209Z,37.41
2023-08-11T08:51:32.985Z,38.62
2023-08-11T08:53:59.611Z,40.02
2023-08-11T08:56:27.604Z,36.08
2023-08-11T08:58:54.314Z,37.89
2023-08-11T09:01:21.324Z,41.84
2023-08-11T09:03:48.218Z,38.78
2023-08-11T09:06:16.113Z,41.71
2023-08-11T09:08:42.689Z,36.51
2023-08-11T09:11:09.211Z,39.63
2023-08-11T09:13:50.234Z,40.92
2023-08-11T09:16:16.868Z,40.63
2023-08-11T09:19:00.020Z,44.14
2023-08-11T09:21:26.774Z,39.95
2023-08-11T09:23:54.974Z,38.02
2023-08-11T09:26:25.477Z,42.41
2023-08-11T09:28:52.571Z,40.58
2023-08-11T09:31:26.191Z,37.89
2023-08-11T09:33:53.702Z,39.67
2023-08-11T09:36:20.879Z,40.89
2023-08-11T09:38:48.972Z,41.64
2023-08-11T09:41:16.478Z,42.40
2023-08-11T09:43:55.246Z,44.15
2023-08-11T09:46:28.034Z,39.96
2023-08-11T09:48:56.228Z,38.95
2023-08-11T09:51:23.251Z,37.79
2023-08-11T09:53:52.184Z,40.17
2023-08-11T09:56:21.000Z,41.95
2023-08-11T09:58:51.099Z,38.76
2023-08-11T10:01:21.075Z,40.75
2023-08-11T10:03:49.548Z,39.86
2023-08-11T10:06:27.833Z,39.88
2023-08-11T10:08:57.957Z,37.63
2023-08-11T10:11:26.037Z,40.60
2023-08-11T10:13:55.264Z,39.39
2023-08-11T10:16:21.831Z,37.98
2023-08-11T10:18:48.503Z,37.21
2023-08-11T10:21:15.135Z,42.53
2023-08-11T10:23:41.952Z,39.07
2023-08-11T10:26:09.445Z,39.40
2023-08-11T10:28:36.865Z,39.83
2023-08-11T10:31:06.253Z,41.83
2023-08-11T10:33:33.274Z,42.00
2023-08-11T10:36:01.642Z,40.08
2023-08-11T10:38:35.450Z,42.17
2023-08-11T10:41:05.528Z,40.48
2023-08-11T10:43:34.936Z,42.67
2023-08-11T10:46:23.451Z,41.19
2023-08-11T10:48:51.948Z,39.73
2023-08-11T10:51:31.879Z,40.38
2023-08-11T10:54:12.330Z,39.59
2023-08-11T10:56:40.356Z,40.29
2023-08-11T10:59:24.211Z,40.04
2023-08-11T11:01:53.504Z,41.67
2023-08-11T11:04:22.152Z,42.14
2023-08-11T11:06:52.216Z,39.49
2023-08-11T11:09:22.405Z,38.92
2023-08-11T11:11:51.849Z,40.30
2023-08-11T11:14:18.813Z,39.41
2023-08-11T11:16:45.451Z,39.31
2023-08-11T11:19:12.055Z,40.59
2023-08-11T11:21:41.572Z,41.23
2023-08-11T11:24:09.946Z,40.01
2023-08-11T11:26:36.921Z,40.47
2023-08-11T11:29:08.721Z,41.61
2023-08-11T11:31:39.282Z,41.11
2023-08-11T11:34:06.678Z,41.92
2023-08-11T11:36:33.927Z,42.40
2023-08-11T11:39:03.796Z,42.08
2023-08-11T11:41:31.857Z,41.98
2023-08-11T11:43:58.409Z,43.03
2023-08-11T11:46:25.208Z,43.75
2023-08-11T11:48:53.570Z,43.50
2023-08-11T11:51:21.973Z,41.99
2023-08-11T11:53:52.099Z,43.90
2023-08-11T11:56:19.366Z,43.27
2023-08-11T11:58:48.499Z,43.63
2023-08-11T12:01:28.818Z,43.40
2023-08-11T12:04:00.921Z,43.79
2023-08-11T12:06:29.046Z,44.97
2023-08-11T12:11:45.694Z,45.40
2023-08-11T12:14:14.651Z,44.21
2023-08-11T12:16:44.106Z,42.79
2023-08-11T12:19:11.138Z,43.23
2023-08-11T12:21:37.944Z,44.16
2023-08-11T12:24:06.766Z,45.28
2023-08-11T12:26:33.287Z,44.72
2023-08-11T12:28:59.790Z,45.61
2023-08-11T12:31:26.362Z,44.64
2023-08-11T12:33:52.938Z,45.43
2023-08-11T12:36:19.564Z,45.65
2023-08-11T12:38:46.088Z,46.24
2023-08-11T12:41:12.575Z,44.45
2023-08-11T12:43:39.316Z,45.06
2023-08-11T12:46:14.803Z,44.18
2023-08-11T12:48:41.277Z,45.31
2023-08-11T12:51:08.184Z,47.69
2023-08-11T12:53:34.672Z,48.23
2023-08-11T12:56:01.592Z,47.26
2023-08-11T12:58:28.376Z,46.19
2023-08-11T13:00:55.029Z,44.18
2023-08-11T13:03:22.569Z,44.36
2023-08-11T13:05:49.533Z,45.11
2023-08-11T13:08:16.135Z,46.63
2023-08-11T13:10:42.825Z,45.60
2023-08-11T13:13:15.376Z,46.34
2023-08-11T13:15:42.260Z,47.36
2023-08-11T13:18:08.869Z,48.71
2023-08-11T13:23:16.196Z,48.24
2023-08-11T13:25:42.744Z,49.03
2023-08-11T13:28:09.248Z,47.43
2023-08-11T13:30:35.806Z,47.30
2023-08-11T13:33:03.744Z,48.22
2023-08-11T13:35:30.409Z,49.49
2023-08-11T13:37:57.111Z,48.12
2023-08-11T13:40:24.890Z,48.47
2023-08-11T13:42:51.557Z,48.52
2023-08-11T13:45:18.618Z,47.67
2023-08-11T13:47:45.736Z,47.06
2023-08-11T13:50:12.429Z,46.54
2023-08-11T13:52:38.903Z,47.30
2023-08-11T13:55:10.239Z,46.00
2023-08-11T13:57:37.360Z,45.93
2023-08-11T14:00:07.499Z,46.13
2023-08-11T14:02:34.102Z,47.58
2023-08-11T14:05:00.585Z,46.67
2023-08-11T14:07:32.584Z,46.07
2023-08-11T14:10:01.715Z,47.30
2023-08-11T14:12:28.295Z,48.51
2023-08-11T14:14:54.834Z,47.61
2023-08-11T14:17:21.557Z,47.63
2023-08-11T14:19:48.263Z,48.10
2023-08-11T14:22:14.926Z,48.42
2023-08-11T14:24:41.422Z,48.56
2023-08-11T14:27:08.068Z,48.26
2023-08-11T14:29:34.591Z,48.21
2023-08-11T14:32:23.211Z,48.90
2023-08-11T14:35:04.756Z,48.36
2023-08-11T14:37:46.083Z,49.48
2023-08-11T14:40:12.644Z,48.84
2023-08-11T14:42:39.300Z,49.63
2023-08-11T14:45:07.449Z,49.31
2023-08-11T14:47:34.117Z,50.81
2023-08-11T14:50:00.612Z,50.47
2023-08-11T14:52:27.313Z,49.86
2023-08-11T14:54:53.857Z,50.50
2023-08-11T14:57:20.830Z,52.33
2023-08-11T14:59:47.991Z,51.08
2023-08-11T15:02:14.683Z,51.61
2023-08-11T15:04:41.376Z,51.59
2023-08-11T15:07:08.030Z,52.61
2023-08-11T15:09:35.575Z,52.63
2023-08-11T15:12:02.252Z,52.07
2023-08-11T15:14:28.730Z,52.41
2023-08-11T15:16:55.381Z,53.73
2023-08-11T15:19:21.909Z,53.63
2023-08-11T15:21:48.778Z,54.94
2023-08-11T15:24:15.575Z,55.46
2023-08-11T15:26:42.172Z,54.66
2023-08-11T15:29:08.657Z,54.95
2023-08-11T15:31:35.267Z,55.69
2023-08-11T15:34:01.860Z,55.44
2023-08-11T15:36:28.427Z,56.95
2023-08-11T15:38:54.938Z,57.02
2023-08-11T15:41:21.674Z,56.76
2023-08-11T15:43:48.475Z,57.69
2023-08-11T15:46:15.163Z,58.27
2023-08-11T15:48:41.835Z,58.84
2023-08-11T15:51:08.499Z,58.57
2023-08-11T15:53:35.266Z,58.67
2023-08-11T15:56:02.438Z,57.99
2023-08-11T15:58:28.891Z,58.99
2023-08-11T16:00:55.433Z,59.51
2023-08-11T16:03:22.939Z,58.69
2023-08-11T16:05:49.635Z,59.00
2023-08-11T16:08:16.193Z,58.53
2023-08-11T16:10:43.277Z,59.31
2023-08-11T16:13:11.196Z,59.06
2023-08-11T16:15:37.973Z,60.27
2023-08-11T16:18:11.323Z,58.60
2023-08-11T16:20:38.456Z,59.84
2023-08-11T16:23:05.329Z,60.00
2023-08-11T16:25:31.902Z,60.07
2023-08-11T16:27:58.505Z,60.67
2023-08-11T16:30:25.020Z,61.32
2023-08-11T16:32:51.821Z,60.79
2023-08-11T16:35:18.426Z,59.67
2023-08-11T16:37:44.959Z,60.49
2023-08-11T16:40:12.053Z,60.45
2023-08-11T16:42:38.650Z,61.22
2023-08-11T16:45:05.898Z,61.25
2023-08-11T16:47:32.419Z,60.42
2023-08-11T16:49:58.907Z,60.94
2023-08-11T16:52:25.421Z,60.78
2023-08-11T16:54:52.432Z,60.93
2023-08-11T16:57:19.044Z,61.35
2023-08-11T16:59:45.582Z,60.72
2023-08-11T17:02:12.317Z,61.76
2023-08-11T17:04:39.022Z,61.97
2023-08-11T17:07:05.681Z,62.34
2023-08-11T17:09:32.128Z,62.69
2023-08-11T17:11:58.710Z,61.60
2023-08-11T17:14:25.304Z,62.22
2023-08-11T17:16:51.833Z,62.45
2023-08-11T17:19:18.370Z,63.15
2023-08-11T17:21:45.188Z,63.60
2023-08-11T17:24:11.772Z,63.91
2023-08-11T17:26:39.457Z,63.33
2023-08-11T17:29:05.971Z,63.29
2023-08-11T17:31:32.715Z,64.33
2023-08-11T17:33:59.391Z,64.27
2023-08-11T17:36:29.922Z,64.23
2023-08-11T17:38:57.842Z,64.87
2023-08-11T17:41:35.468Z,65.55
2023-08-11T17:44:02.004Z,65.48
2023-08-11T17:46:29.186Z,65.21
2023-08-11T17:48:55.965Z,65.37
2023-08-11T17:51:24.088Z,65.84
2023-08-11T17:54:03.692Z,66.10
2023-08-11T17:56:36.774Z,66.28
2023-08-11T17:59:03.715Z,66.61
2023-08-11T18:01:31.010Z,67.19
2023-08-11T18:04:02.027Z,67.38
2023-08-11T18:06:30.512Z,67.44
2023-08-11T18:08:57.339Z,67.29
2023-08-11T18:11:23.894Z,67.99
2023-08-11T18:13:50.507Z,68.00
2023-08-11T18:16:17.122Z,68.66
2023-08-11T18:18:43.866Z,68.19
2023-08-11T18:21:19.874Z,68.08
2023-08-11T18:23:47.923Z,68.68
2023-08-11T18:26:16.455Z,69.13
2023-08-11T18:28:43.480Z,68.30
2023-08-11T18:31:10.214Z,69.11
2023-08-11T18:33:37.184Z,69.16
2023-08-11T18:36:04.059Z,69.36
2023-08-11T18:38:30.620Z,69.63
2023-08-11T18:40:57.195Z,69.32
2023-08-11T18:43:23.741Z,70.05
2023-08-11T18:45:50.306Z,69.99
2023-08-11T18:48:16.960Z,71.01
2023-08-11T18:50:43.808Z,71.12
2023-08-11T18:53:10.464Z,70.81
2023-08-11T18:55:36.965Z,71.07
2023-08-11T18:58:04.732Z,71.91
2023-08-11T19:00:31.483Z,71.37
2023-08-11T19:02:58.317Z,71.61
2023-08-11T19:05:25.098Z,71.44
2023-08-11T19:07:51.708Z,71.52
2023-08-11T19:10:28.054Z,72.68
2023-08-11T19:12:54.748Z,71.88
2023-08-11T19:15:21.322Z,71.92
2023-08-11T19:17:48.059Z,72.53
2023-08-11T19:20:15.157Z,72.77
2023-08-11T19:22:41.917Z,72.31
2023-08-11T19:25:08.903Z,73.12
2023-08-11T19:27:35.597Z,73.60
2023-08-11T19:30:02.322Z,73.04
2023-08-11T19:32:29.335Z,72.73
2023-08-11T19:34:57.169Z,73.48
2023-08-11T19:37:23.739Z,73.43
2023-08-11T19:39:50.194Z,74.05
2023-08-11T19:42:16.936Z,73.99
2023-08-11T19:44:44.066Z,73.27
2023-08-11T19:47:10.636Z,73.35
2023-08-11T19:49:37.796Z,73.96
2023-08-11T19:52:04.671Z,74.24
2023-08-11T19:54:31.304Z,74.80
2023-08-11T19:56:57.937Z,75.02
2023-08-11T19:59:24.649Z,74.60
2023-08-11T20:01:52.695Z,75.25
2023-08-11T20:04:22.301Z,75.28
2023-08-11T20:06:48.831Z,75.81
2023-08-11T20:09:15.673Z,75.86
2023-08-11T20:11:42.290Z,76.17
2023-08-11T20:14:11.663Z,76.67
2023-08-11T20:16:38.255Z,76.86
2023-08-11T20:19:04.944Z,77.28
2023-08-11T20:21:31.603Z,76.61
2023-08-11T20:23:58.308Z,77.61
2023-08-11T20:26:28.490Z,77.69
2023-08-11T20:28:55.194Z,77.42
2023-08-11T20:31:21.983Z,77.51
2023-08-11T20:33:49.113Z,78.60
2023-08-11T20:36:15.590Z,78.66
2023-08-11T20:38:42.073Z,78.83
2023-08-11T20:41:08.738Z,78.53
2023-08-11T20:43:35.627Z,79.01
2023-08-11T20:46:02.124Z,79.97
2023-08-11T20:48:28.902Z,79.39
2023-08-11T20:51:03.377Z,79.59
2023-08-11T20:53:30.847Z,80.07
2023-08-11T20:56:00.944Z,80.44
2023-08-11T20:58:28.572Z,80.55
2023-08-11T21:00:55.551Z,80.64
2023-08-11T21:03:22.560Z,81.16
2023-08-11T21:05:49.216Z,81.88
2023-08-11T21:08:17.285Z,82.57
2023-08-11T21:10:48.361Z,82.49
2023-08-11T21:13:15.536Z,82.65
2023-08-11T21:15:42.573Z,83.31
2023-08-11T21:18:10.933Z,83.30
2023-08-11T21:20:37.901Z,83.88
2023-08-11T21:23:05.522Z,84.30
2023-08-11T21:25:33.292Z,84.50
2023-08-11T21:28:00.140Z,84.73
2023-08-11T21:30:26.932Z,84.72
2023-08-11T21:32:53.578Z,85.02
2023-08-11T21:35:21.330Z,85.11
2023-08-11T21:37:47.892Z,85.20
2023-08-11T21:40:14.613Z,85.15
2023-08-11T21:42:41.136Z,84.55
2023-08-11T21:45:08.210Z,85.32
2023-08-11T21:47:36.061Z,84.85
2023-08-11T21:52:43.341Z,84.06
2023-08-11T21:55:10.269Z,84.72
2023-08-11T21:57:37.104Z,84.72
2023-08-11T22:00:04.108Z,85.21
2023-08-11T22:02:30.886Z,85.33
2023-08-11T22:05:01.054Z,85.82
2023-08-11T22:07:27.571Z,86.32
2023-08-11T22:09:54.153Z,86.51
2023-08-11T22:12:21.321Z,86.74
2023-08-11T22:14:47.863Z,87.05
2023-08-11T22:17:17.525Z,87.34
2023-08-11T22:19:47.328Z,87.95
2023-08-11T22:22:15.680Z,88.21
2023-08-11T22:24:42.591Z,88.54
2023-08-11T22:27:11.077Z,88.44
2023-08-11T22:29:38.166Z,88.76
2023-08-11T22:32:05.193Z,88.89
2023-08-11T22:34:31.727Z,89.20
2023-08-11T22:36:58.257Z,89.48
2023-08-11T22:39:24.762Z,88.84
2023-08-11T22:41:51.201Z,88.84
2023-08-11T22:44:17.792Z,88.94
2023-08-11T22:46:44.578Z,89.07
2023-08-11T22:49:11.146Z,89.08
2023-08-11T22:51:37.604Z,89.34
2023-08-11T22:54:04.357Z,89.60
2023-08-11T22:56:31.054Z,89.06
2023-08-11T22:58:57.637Z,88.94
2023-08-11T23:01:24.306Z,89.19
2023-08-11T23:03:50.893Z,88.86
2023-08-11T23:06:17.453Z,88.39
2023-08-11T23:08:43.896Z,88.48
2023-08-11T23:11:10.517Z,88.97
2023-08-11T23:13:37.065Z,88.29
2023-08-11T23:16:04.345Z,88.09
2023-08-11T23:18:30.999Z,88.51
2023-08-11T23:20:57.536Z,88.13
2023-08-11T23:23:24.079Z,88.48
2023-08-11T23:25:51.295Z,88.16
2023-08-11T23:28:18.510Z,88.19
2023-08-11T23:30:45.043Z,88.04
2023-08-11T23:33:11.782Z,88.66
2023-08-11T23:35:39.714Z,89.01
2023-08-11T23:38:06.317Z,89.09
2023-08-11T23:40:33.349Z,89.02
2023-08-11T23:42:59.822Z,88.78
2023-08-11T23:45:26.317Z,89.28
2023-08-11T23:47:52.921Z,89.91
2023-08-11T23:50:19.788Z,90.21
2023-08-11T23:52:46.452Z,89.79
2023-08-11T23:55:13.667Z,89.74
2023-08-11T23:57:40.364Z,90.13
